sensor_id;sensor_type;location;lat;lon;timestamp;noise_LAeq;noise_LA_min;noise_LA_max;noise_LA01;noise_LA95
76382;Laerm;65202;52.520;10.528;2023-12-20T00:01:09;36.75;33.39;55.31;;
76382;Laerm;65202;52.520;10.528;2023-12-20T00:03:37;36.62;34.26;56.91;;
76382;Laerm;65202;52.520;10.528;2023-12-20T00:06:09;37.96;33.83;66.84;;
76382;Laerm;65202;52.520;10.528;2023-12-20T00:08:37;36.87;33.74;58.74;;
76382;Laerm;65202;52.520;10.528;2023-12-20T00:11:04;36.43;34.22;48.70;;
76382;Laerm;65202;52.520;10.528;2023-12-20T00:13:32;36.83;34.16;44.89;;
76382;Laerm;65202;52.520;10.528;2023-12-20T00:15:59;38.14;34.74;63.68;;
76382;Laerm;65202;52.520;10.528;2023-12-20T00:18:26;36.93;34.32;54.72;;
76382;Laerm;65202;52.520;10.528;2023-12-20T00:20:54;38.18;34.35;63.98;;
76382;Laerm;65202;52.520;10.528;2023-12-20T00:23:21;38.64;34.65;49.09;;
76382;Laerm;65202;52.520;10.528;2023-12-20T00:25:50;38.34;34.85;47.17;;
76382;Laerm;65202;52.520;10.528;2023-12-20T00:28:17;38.29;35.22;59.41;;
76382;Laerm;65202;52.520;10.528;2023-12-20T00:30:44;37.35;34.36;46.05;;
76382;Laerm;65202;52.520;10.528;2023-12-20T00:33:12;37.81;34.35;52.33;;
76382;Laerm;65202;52.520;10.528;2023-12-20T00:35:40;37.67;34.55;48.08;;
76382;Laerm;65202;52.520;10.528;2023-12-20T00:38:07;37.70;34.91;44.31;;
76382;Laerm;65202;52.520;10.528;2023-12-20T00:40:35;36.85;34.40;44.76;;
76382;Laerm;65202;52.520;10.528;2023-12-20T00:43:03;37.86;34.57;52.44;;
76382;Laerm;65202;52.520;10.528;2023-12-20T00:45:30;37.00;34.23;43.24;;
76382;Laerm;65202;52.520;10.528;2023-12-20T00:47:58;36.53;33.74;43.79;;
76382;Laerm;65202;52.520;10.528;2023-12-20T00:50:26;39.55;35.39;48.89;;
76382;Laerm;65202;52.520;10.528;2023-12-20T00:52:56;37.19;34.18;51.92;;
76382;Laerm;65202;52.520;10.528;2023-12-20T00:55:24;37.69;34.53;57.12;;
76382;Laerm;65202;52.520;10.528;2023-12-20T00:57:51;37.43;34.11;59.22;;
76382;Laerm;65202;52.520;10.528;2023-12-20T01:00:20;37.20;34.55;44.39;;
76382;Laerm;65202;52.520;10.528;2023-12-20T01:02:47;37.62;34.94;46.81;;
76382;Laerm;65202;52.520;10.528;2023-12-20T01:05:18;36.75;33.75;43.15;;
76382;Laerm;65202;52.520;10.528;2023-12-20T01:07:46;37.52;34.68;50.01;;
76382;Laerm;65202;52.520;10.528;2023-12-20T01:10:14;37.19;34.35;49.64;;
76382;Laerm;65202;52.520;10.528;2023-12-20T01:12:41;37.47;34.43;43.45;;
76382;Laerm;65202;52.520;10.528;2023-12-20T01:15:09;39.29;35.25;48.65;;
76382;Laerm;65202;52.520;10.528;2023-12-20T01:17:36;37.66;34.49;48.54;;
76382;Laerm;65202;52.520;10.528;2023-12-20T01:20:04;36.80;34.15;43.39;;
76382;Laerm;65202;52.520;10.528;2023-12-20T01:22:31;37.41;34.15;61.42;;
76382;Laerm;65202;52.520;10.528;2023-12-20T01:24:59;37.30;34.19;59.89;;
76382;Laerm;65202;52.520;10.528;2023-12-20T01:27:26;37.17;34.45;43.66;;
76382;Laerm;65202;52.520;10.528;2023-12-20T01:29:53;37.35;34.51;43.53;;
76382;Laerm;65202;52.520;10.528;2023-12-20T01:32:21;38.15;34.24;48.76;;
76382;Laerm;65202;52.520;10.528;2023-12-20T01:34:48;36.66;33.98;45.93;;
76382;Laerm;65202;52.520;10.528;2023-12-20T01:37:16;37.11;34.04;46.38;;
76382;Laerm;65202;52.520;10.528;2023-12-20T01:39:43;36.59;33.93;43.83;;
76382;Laerm;65202;52.520;10.528;2023-12-20T01:42:11;39.65;34.49;53.49;;
76382;Laerm;65202;52.520;10.528;2023-12-20T01:44:38;37.41;34.24;44.52;;
76382;Laerm;65202;52.520;10.528;2023-12-20T01:47:06;38.69;34.47;47.86;;
76382;Laerm;65202;52.520;10.528;2023-12-20T01:49:33;37.79;34.75;44.91;;
76382;Laerm;65202;52.520;10.528;2023-12-20T01:52:00;37.63;34.95;49.67;;
76382;Laerm;65202;52.520;10.528;2023-12-20T01:54:28;37.83;34.57;50.03;;
76382;Laerm;65202;52.520;10.528;2023-12-20T01:56:56;38.95;35.16;44.34;;
76382;Laerm;65202;52.520;10.528;2023-12-20T01:59:23;38.34;35.11;63.22;;
76382;Laerm;65202;52.520;10.528;2023-12-20T02:01:50;37.94;34.74;59.77;;
76382;Laerm;65202;52.520;10.528;2023-12-20T02:04:18;37.65;34.52;44.64;;
76382;Laerm;65202;52.520;10.528;2023-12-20T02:06:46;37.85;34.73;46.89;;
76382;Laerm;65202;52.520;10.528;2023-12-20T02:09:15;40.81;35.20;58.79;;
76382;Laerm;65202;52.520;10.528;2023-12-20T02:11:43;38.56;34.86;60.84;;
76382;Laerm;65202;52.520;10.528;2023-12-20T02:14:10;37.63;34.37;50.12;;
76382;Laerm;65202;52.520;10.528;2023-12-20T02:16:37;38.48;35.21;46.53;;
76382;Laerm;65202;52.520;10.528;2023-12-20T02:19:14;37.44;34.51;43.77;;
76382;Laerm;65202;52.520;10.528;2023-12-20T02:21:42;43.30;34.70;58.88;;
76382;Laerm;65202;52.520;10.528;2023-12-20T02:24:09;37.68;34.51;43.80;;
76382;Laerm;65202;52.520;10.528;2023-12-20T02:26:36;37.76;34.23;43.90;;
76382;Laerm;65202;52.520;10.528;2023-12-20T02:29:04;37.73;34.95;43.84;;
76382;Laerm;65202;52.520;10.528;2023-12-20T02:31:31;38.61;35.02;44.42;;
76382;Laerm;65202;52.520;10.528;2023-12-20T02:33:59;39.87;35.51;46.82;;
76382;Laerm;65202;52.520;10.528;2023-12-20T02:36:26;38.15;35.14;46.91;;
76382;Laerm;65202;52.520;10.528;2023-12-20T02:38:54;38.81;34.05;52.43;;
76382;Laerm;65202;52.520;10.528;2023-12-20T02:41:21;38.69;34.73;44.93;;
76382;Laerm;65202;52.520;10.528;2023-12-20T02:43:48;37.74;35.07;45.61;;
76382;Laerm;65202;52.520;10.528;2023-12-20T02:46:16;37.97;34.49;48.03;;
76382;Laerm;65202;52.520;10.528;2023-12-20T02:48:44;37.52;34.48;43.67;;
76382;Laerm;65202;52.520;10.528;2023-12-20T02:51:12;38.85;35.55;47.58;;
76382;Laerm;65202;52.520;10.528;2023-12-20T02:53:39;37.60;34.57;52.06;;
76382;Laerm;65202;52.520;10.528;2023-12-20T02:56:06;39.13;34.73;46.27;;
76382;Laerm;65202;52.520;10.528;2023-12-20T02:58:33;38.25;34.43;45.94;;
76382;Laerm;65202;52.520;10.528;2023-12-20T03:01:00;39.81;34.96;44.60;;
76382;Laerm;65202;52.520;10.528;2023-12-20T03:03:28;38.13;34.78;51.92;;
76382;Laerm;65202;52.520;10.528;2023-12-20T03:05:55;38.20;34.68;47.40;;
76382;Laerm;65202;52.520;10.528;2023-12-20T03:08:22;37.80;34.66;45.33;;
76382;Laerm;65202;52.520;10.528;2023-12-20T03:10:50;37.97;35.10;47.72;;
76382;Laerm;65202;52.520;10.528;2023-12-20T03:13:17;38.48;35.03;51.46;;
76382;Laerm;65202;52.520;10.528;2023-12-20T03:15:45;37.73;34.58;50.47;;
76382;Laerm;65202;52.520;10.528;2023-12-20T03:18:13;38.28;35.21;49.15;;
76382;Laerm;65202;52.520;10.528;2023-12-20T03:20:40;38.79;34.88;45.89;;
76382;Laerm;65202;52.520;10.528;2023-12-20T03:23:08;40.20;36.85;56.25;;
76382;Laerm;65202;52.520;10.528;2023-12-20T03:25:35;38.66;35.53;42.86;;
76382;Laerm;65202;52.520;10.528;2023-12-20T03:28:03;39.37;34.85;45.94;;
76382;Laerm;65202;52.520;10.528;2023-12-20T03:30:30;40.12;35.46;48.40;;
76382;Laerm;65202;52.520;10.528;2023-12-20T03:32:58;38.77;35.17;52.17;;
76382;Laerm;65202;52.520;10.528;2023-12-20T03:35:25;38.00;34.19;55.21;;
76382;Laerm;65202;52.520;10.528;2023-12-20T03:37:52;42.47;34.30;57.84;;
76382;Laerm;65202;52.520;10.528;2023-12-20T03:40:20;44.52;35.07;61.48;;
76382;Laerm;65202;52.520;10.528;2023-12-20T03:42:47;40.71;35.58;58.74;;
76382;Laerm;65202;52.520;10.528;2023-12-20T03:45:15;37.37;34.44;43.47;;
76382;Laerm;65202;52.520;10.528;2023-12-20T03:47:42;39.58;34.73;48.21;;
76382;Laerm;65202;52.520;10.528;2023-12-20T03:50:10;38.40;35.17;44.01;;
76382;Laerm;65202;52.520;10.528;2023-12-20T03:52:37;40.32;35.78;50.73;;
76382;Laerm;65202;52.520;10.528;2023-12-20T03:55:05;41.16;35.90;49.66;;
76382;Laerm;65202;52.520;10.528;2023-12-20T03:57:32;39.83;35.44;50.10;;
76382;Laerm;65202;52.520;10.528;2023-12-20T03:59:59;39.72;36.00;48.67;;
76382;Laerm;65202;52.520;10.528;2023-12-20T04:02:27;41.30;35.99;58.25;;
76382;Laerm;65202;52.520;10.528;2023-12-20T04:04:54;39.52;35.65;47.88;;
76382;Laerm;65202;52.520;10.528;2023-12-20T04:07:21;38.81;35.59;54.81;;
76382;Laerm;65202;52.520;10.528;2023-12-20T04:09:49;39.02;34.96;45.92;;
76382;Laerm;65202;52.520;10.528;2023-12-20T04:12:16;38.85;34.97;44.96;;
76382;Laerm;65202;52.520;10.528;2023-12-20T04:14:43;38.45;35.25;45.69;;
76382;Laerm;65202;52.520;10.528;2023-12-20T04:17:10;41.20;37.04;47.11;;
76382;Laerm;65202;52.520;10.528;2023-12-20T04:19:38;41.90;37.56;46.42;;
76382;Laerm;65202;52.520;10.528;2023-12-20T04:22:05;42.15;37.48;49.83;;
76382;Laerm;65202;52.520;10.528;2023-12-20T04:24:32;40.24;36.85;50.73;;
76382;Laerm;65202;52.520;10.528;2023-12-20T04:27:00;40.71;36.43;63.66;;
76382;Laerm;65202;52.520;10.528;2023-12-20T04:29:27;40.61;37.06;48.27;;
76382;Laerm;65202;52.520;10.528;2023-12-20T04:31:54;41.09;37.61;52.80;;
76382;Laerm;65202;52.520;10.528;2023-12-20T04:34:22;41.35;37.00;48.25;;
76382;Laerm;65202;52.520;10.528;2023-12-20T04:36:50;41.83;37.80;50.68;;
76382;Laerm;65202;52.520;10.528;2023-12-20T04:39:17;40.79;37.44;62.39;;
76382;Laerm;65202;52.520;10.528;2023-12-20T04:41:45;41.53;37.87;49.18;;
76382;Laerm;65202;52.520;10.528;2023-12-20T04:44:12;40.57;36.47;45.44;;
76382;Laerm;65202;52.520;10.528;2023-12-20T04:46:39;41.45;37.33;58.54;;
76382;Laerm;65202;52.520;10.528;2023-12-20T04:49:07;42.07;38.25;52.85;;
76382;Laerm;65202;52.520;10.528;2023-12-20T04:51:34;42.75;37.92;49.43;;
76382;Laerm;65202;52.520;10.528;2023-12-20T04:54:02;42.07;37.72;49.11;;
76382;Laerm;65202;52.520;10.528;2023-12-20T04:56:29;41.46;38.33;46.63;;
76382;Laerm;65202;52.520;10.528;2023-12-20T04:58:56;41.18;37.29;46.16;;
76382;Laerm;65202;52.520;10.528;2023-12-20T05:01:24;41.38;37.12;47.78;;
76382;Laerm;65202;52.520;10.528;2023-12-20T05:03:51;42.16;38.09;54.21;;
76382;Laerm;65202;52.520;10.528;2023-12-20T05:06:18;41.13;37.80;47.21;;
76382;Laerm;65202;52.520;10.528;2023-12-20T05:08:46;47.49;38.96;62.70;;
76382;Laerm;65202;52.520;10.528;2023-12-20T05:11:13;41.45;37.99;49.30;;
76382;Laerm;65202;52.520;10.528;2023-12-20T05:13:42;44.76;39.71;56.07;;
76382;Laerm;65202;52.520;10.528;2023-12-20T05:16:16;41.69;37.73;50.08;;
76382;Laerm;65202;52.520;10.528;2023-12-20T05:18:48;47.90;37.81;61.65;;
76382;Laerm;65202;52.520;10.528;2023-12-20T05:21:16;42.28;38.00;55.16;;
76382;Laerm;65202;52.520;10.528;2023-12-20T05:23:43;41.47;36.38;49.25;;
76382;Laerm;65202;52.520;10.528;2023-12-20T05:26:11;41.30;37.64;47.64;;
76382;Laerm;65202;52.520;10.528;2023-12-20T05:28:38;43.02;38.18;51.48;;
76382;Laerm;65202;52.520;10.528;2023-12-20T05:31:05;45.67;39.49;60.19;;
76382;Laerm;65202;52.520;10.528;2023-12-20T05:33:34;42.17;37.44;49.89;;
76382;Laerm;65202;52.520;10.528;2023-12-20T05:36:01;45.84;38.83;61.19;;
76382;Laerm;65202;52.520;10.528;2023-12-20T05:38:28;42.09;37.96;48.17;;
76382;Laerm;65202;52.520;10.528;2023-12-20T05:40:56;44.21;39.49;50.34;;
76382;Laerm;65202;52.520;10.528;2023-12-20T05:43:23;43.15;38.45;55.06;;
76382;Laerm;65202;52.520;10.528;2023-12-20T05:45:51;44.48;40.64;54.29;;
76382;Laerm;65202;52.520;10.528;2023-12-20T05:48:18;45.26;39.96;61.04;;
76382;Laerm;65202;52.520;10.528;2023-12-20T05:50:45;44.57;39.91;49.35;;
76382;Laerm;65202;52.520;10.528;2023-12-20T05:53:13;47.65;40.74;61.80;;
76382;Laerm;65202;52.520;10.528;2023-12-20T05:55:40;44.54;39.46;52.07;;
76382;Laerm;65202;52.520;10.528;2023-12-20T05:58:10;43.37;39.09;50.46;;
76382;Laerm;65202;52.520;10.528;2023-12-20T06:00:38;43.18;39.12;50.71;;
76382;Laerm;65202;52.520;10.528;2023-12-20T06:03:05;49.84;39.73;70.71;;
76382;Laerm;65202;52.520;10.528;2023-12-20T06:05:32;44.05;40.21;54.98;;
76382;Laerm;65202;52.520;10.528;2023-12-20T06:07:59;47.96;38.54;65.75;;
76382;Laerm;65202;52.520;10.528;2023-12-20T06:10:29;45.13;39.85;59.31;;
76382;Laerm;65202;52.520;10.528;2023-12-20T06:12:57;44.30;39.90;54.53;;
76382;Laerm;65202;52.520;10.528;2023-12-20T06:15:26;46.13;39.90;58.32;;
76382;Laerm;65202;52.520;10.528;2023-12-20T06:17:53;47.73;40.23;63.99;;
76382;Laerm;65202;52.520;10.528;2023-12-20T06:20:20;43.98;40.25;48.97;;
76382;Laerm;65202;52.520;10.528;2023-12-20T06:22:48;45.14;40.54;52.66;;
76382;Laerm;65202;52.520;10.528;2023-12-20T06:25:15;47.55;40.92;63.53;;
76382;Laerm;65202;52.520;10.528;2023-12-20T06:27:43;47.67;39.24;61.62;;
76382;Laerm;65202;52.520;10.528;2023-12-20T06:30:11;46.88;39.25;59.46;;
76382;Laerm;65202;52.520;10.528;2023-12-20T06:32:38;47.84;40.79;67.05;;
76382;Laerm;65202;52.520;10.528;2023-12-20T06:35:07;45.52;41.58;57.00;;
76382;Laerm;65202;52.520;10.528;2023-12-20T06:37:34;49.85;39.46;65.53;;
76382;Laerm;65202;52.520;10.528;2023-12-20T06:40:02;46.64;39.86;64.39;;
76382;Laerm;65202;52.520;10.528;2023-12-20T06:42:29;49.25;39.81;70.57;;
76382;Laerm;65202;52.520;10.528;2023-12-20T06:45:01;49.94;40.81;67.96;;
76382;Laerm;65202;52.520;10.528;2023-12-20T06:47:28;48.61;40.79;59.71;;
76382;Laerm;65202;52.520;10.528;2023-12-20T06:49:58;47.07;41.31;60.54;;
76382;Laerm;65202;52.520;10.528;2023-12-20T06:52:25;43.48;39.02;50.57;;
76382;Laerm;65202;52.520;10.528;2023-12-20T06:54:52;45.43;40.40;64.57;;
76382;Laerm;65202;52.520;10.528;2023-12-20T06:57:20;49.91;39.53;66.82;;
76382;Laerm;65202;52.520;10.528;2023-12-20T06:59:47;46.82;41.91;56.15;;
76382;Laerm;65202;52.520;10.528;2023-12-20T07:02:14;46.95;39.24;63.73;;
76382;Laerm;65202;52.520;10.528;2023-12-20T07:04:41;47.63;39.33;63.14;;
76382;Laerm;65202;52.520;10.528;2023-12-20T07:07:09;46.54;39.88;63.08;;
76382;Laerm;65202;52.520;10.528;2023-12-20T07:09:36;47.26;39.74;66.21;;
76382;Laerm;65202;52.520;10.528;2023-12-20T07:12:05;48.64;39.37;62.65;;
76382;Laerm;65202;52.520;10.528;2023-12-20T07:14:32;49.35;40.36;65.79;;
76382;Laerm;65202;52.520;10.528;2023-12-20T07:17:00;44.73;38.24;54.33;;
76382;Laerm;65202;52.520;10.528;2023-12-20T07:19:27;44.89;39.70;57.66;;
76382;Laerm;65202;52.520;10.528;2023-12-20T07:21:54;48.95;40.94;63.73;;
76382;Laerm;65202;52.520;10.528;2023-12-20T07:24:22;47.67;40.50;62.88;;
76382;Laerm;65202;52.520;10.528;2023-12-20T07:26:49;50.10;43.72;63.51;;
76382;Laerm;65202;52.520;10.528;2023-12-20T07:29:16;46.02;41.34;54.76;;
76382;Laerm;65202;52.520;10.528;2023-12-20T07:31:44;50.66;42.18;66.46;;
76382;Laerm;65202;52.520;10.528;2023-12-20T07:34:11;51.19;42.10;63.63;;
76382;Laerm;65202;52.520;10.528;2023-12-20T07:36:38;48.08;42.24;68.68;;
76382;Laerm;65202;52.520;10.528;2023-12-20T07:39:07;44.64;40.63;50.05;;
76382;Laerm;65202;52.520;10.528;2023-12-20T07:41:34;46.47;41.52;58.51;;
76382;Laerm;65202;52.520;10.528;2023-12-20T07:44:01;48.25;40.33;59.31;;
76382;Laerm;65202;52.520;10.528;2023-12-20T07:46:29;44.71;39.76;59.24;;
76382;Laerm;65202;52.520;10.528;2023-12-20T07:48:56;48.15;42.14;62.38;;
76382;Laerm;65202;52.520;10.528;2023-12-20T07:51:23;45.81;40.55;57.68;;
76382;Laerm;65202;52.520;10.528;2023-12-20T07:53:51;48.63;43.50;64.18;;
76382;Laerm;65202;52.520;10.528;2023-12-20T07:56:20;44.09;38.96;55.40;;
76382;Laerm;65202;52.520;10.528;2023-12-20T07:58:47;44.74;39.55;58.29;;
76382;Laerm;65202;52.520;10.528;2023-12-20T08:01:20;48.41;40.85;63.71;;
76382;Laerm;65202;52.520;10.528;2023-12-20T08:03:49;45.71;40.16;56.88;;
76382;Laerm;65202;52.520;10.528;2023-12-20T08:06:17;47.41;39.59;64.71;;
76382;Laerm;65202;52.520;10.528;2023-12-20T08:08:44;44.63;40.88;50.67;;
76382;Laerm;65202;52.520;10.528;2023-12-20T08:11:19;44.35;40.64;53.32;;
76382;Laerm;65202;52.520;10.528;2023-12-20T08:13:46;48.77;41.36;62.67;;
76382;Laerm;65202;52.520;10.528;2023-12-20T08:16:13;52.32;40.73;69.54;;
76382;Laerm;65202;52.520;10.528;2023-12-20T08:18:43;46.40;40.23;59.67;;
76382;Laerm;65202;52.520;10.528;2023-12-20T08:21:11;49.11;41.28;65.82;;
76382;Laerm;65202;52.520;10.528;2023-12-20T08:23:38;49.37;41.35;67.75;;
76382;Laerm;65202;52.520;10.528;2023-12-20T08:26:07;50.83;42.93;69.42;;
76382;Laerm;65202;52.520;10.528;2023-12-20T08:28:36;48.51;42.94;59.50;;
76382;Laerm;65202;52.520;10.528;2023-12-20T08:31:04;47.47;40.76;68.12;;
76382;Laerm;65202;52.520;10.528;2023-12-20T08:33:31;48.94;41.61;65.67;;
76382;Laerm;65202;52.520;10.528;2023-12-20T08:35:59;46.86;42.14;53.33;;
76382;Laerm;65202;52.520;10.528;2023-12-20T08:38:26;52.02;42.33;69.52;;
76382;Laerm;65202;52.520;10.528;2023-12-20T08:40:53;46.90;40.09;60.58;;
76382;Laerm;65202;52.520;10.528;2023-12-20T08:43:20;46.79;40.39;56.26;;
76382;Laerm;65202;52.520;10.528;2023-12-20T08:45:48;45.91;41.39;55.06;;
76382;Laerm;65202;52.520;10.528;2023-12-20T08:48:15;50.16;43.02;61.11;;
76382;Laerm;65202;52.520;10.528;2023-12-20T08:50:43;46.82;41.87;60.92;;
76382;Laerm;65202;52.520;10.528;2023-12-20T08:53:11;46.09;41.18;51.69;;
76382;Laerm;65202;52.520;10.528;2023-12-20T08:55:38;45.68;41.62;51.08;;
76382;Laerm;65202;52.520;10.528;2023-12-20T08:58:06;50.00;42.95;63.34;;
76382;Laerm;65202;52.520;10.528;2023-12-20T09:00:34;46.95;42.34;55.67;;
76382;Laerm;65202;52.520;10.528;2023-12-20T09:03:02;44.66;40.16;52.43;;
76382;Laerm;65202;52.520;10.528;2023-12-20T09:05:30;46.67;41.71;54.42;;
76382;Laerm;65202;52.520;10.528;2023-12-20T09:07:58;46.89;41.91;54.28;;
76382;Laerm;65202;52.520;10.528;2023-12-20T09:10:25;44.87;41.23;50.70;;
76382;Laerm;65202;52.520;10.528;2023-12-20T09:12:53;45.64;40.40;59.81;;
76382;Laerm;65202;52.520;10.528;2023-12-20T09:15:26;45.73;41.27;60.60;;
76382;Laerm;65202;52.520;10.528;2023-12-20T09:17:53;46.20;41.22;55.32;;
76382;Laerm;65202;52.520;10.528;2023-12-20T09:20:21;46.93;40.28;59.06;;
76382;Laerm;65202;52.520;10.528;2023-12-20T09:22:51;45.97;39.84;60.47;;
76382;Laerm;65202;52.520;10.528;2023-12-20T09:25:18;45.05;40.56;53.12;;
76382;Laerm;65202;52.520;10.528;2023-12-20T09:27:45;44.31;40.06;49.35;;
76382;Laerm;65202;52.520;10.528;2023-12-20T09:30:13;47.49;41.98;54.64;;
76382;Laerm;65202;52.520;10.528;2023-12-20T09:32:54;49.11;41.27;72.56;;
76382;Laerm;65202;52.520;10.528;2023-12-20T09:35:22;49.51;40.57;68.42;;
76382;Laerm;65202;52.520;10.528;2023-12-20T09:37:50;44.90;40.67;52.60;;
76382;Laerm;65202;52.520;10.528;2023-12-20T09:40:20;45.98;41.98;59.85;;
76382;Laerm;65202;52.520;10.528;2023-12-20T09:42:57;44.90;41.19;52.62;;
76382;Laerm;65202;52.520;10.528;2023-12-20T09:45:25;49.28;43.77;58.28;;
76382;Laerm;65202;52.520;10.528;2023-12-20T09:47:56;48.06;41.75;63.02;;
76382;Laerm;65202;52.520;10.528;2023-12-20T09:50:25;45.57;41.30;53.83;;
76382;Laerm;65202;52.520;10.528;2023-12-20T09:52:54;49.48;41.64;64.66;;
76382;Laerm;65202;52.520;10.528;2023-12-20T09:55:25;48.26;42.74;62.79;;
76382;Laerm;65202;52.520;10.528;2023-12-20T09:57:53;49.63;41.70;64.50;;
76382;Laerm;65202;52.520;10.528;2023-12-20T10:00:21;51.04;40.52;69.87;;
76382;Laerm;65202;52.520;10.528;2023-12-20T10:02:58;51.00;43.29;67.32;;
76382;Laerm;65202;52.520;10.528;2023-12-20T10:05:31;46.43;40.84;53.41;;
76382;Laerm;65202;52.520;10.528;2023-12-20T10:08:01;47.77;41.07;63.87;;
76382;Laerm;65202;52.520;10.528;2023-12-20T10:10:29;43.78;39.70;51.62;;
76382;Laerm;65202;52.520;10.528;2023-12-20T10:13:12;51.74;41.71;68.09;;
76382;Laerm;65202;52.520;10.528;2023-12-20T10:15:41;49.03;41.88;66.26;;
76382;Laerm;65202;52.520;10.528;2023-12-20T10:18:11;51.49;41.27;67.95;;
76382;Laerm;65202;52.520;10.528;2023-12-20T10:20:40;51.13;40.02;65.83;;
76382;Laerm;65202;52.520;10.528;2023-12-20T10:23:09;50.91;43.96;64.92;;
76382;Laerm;65202;52.520;10.528;2023-12-20T10:25:37;46.52;42.05;54.86;;
76382;Laerm;65202;52.520;10.528;2023-12-20T10:28:15;47.51;41.75;60.32;;
76382;Laerm;65202;52.520;10.528;2023-12-20T10:30:46;48.47;42.59;55.45;;
76382;Laerm;65202;52.520;10.528;2023-12-20T10:33:26;46.39;42.41;51.79;;
76382;Laerm;65202;52.520;10.528;2023-12-20T10:35:55;49.58;40.96;66.87;;
76382;Laerm;65202;52.520;10.528;2023-12-20T10:38:23;45.99;41.29;56.55;;
76382;Laerm;65202;52.520;10.528;2023-12-20T10:40:58;48.82;43.28;56.07;;
76382;Laerm;65202;52.520;10.528;2023-12-20T10:43:30;46.59;41.35;52.49;;
76382;Laerm;65202;52.520;10.528;2023-12-20T10:46:00;46.10;40.63;51.01;;
76382;Laerm;65202;52.520;10.528;2023-12-20T10:48:30;46.88;40.27;58.87;;
76382;Laerm;65202;52.520;10.528;2023-12-20T10:51:05;45.93;41.20;56.37;;
76382;Laerm;65202;52.520;10.528;2023-12-20T10:53:36;47.79;42.36;54.42;;
76382;Laerm;65202;52.520;10.528;2023-12-20T10:56:06;50.64;42.72;64.70;;
76382;Laerm;65202;52.520;10.528;2023-12-20T10:58:38;50.72;42.67;65.36;;
76382;Laerm;65202;52.520;10.528;2023-12-20T11:01:07;49.63;42.42;60.93;;
76382;Laerm;65202;52.520;10.528;2023-12-20T11:03:49;48.04;42.72;56.01;;
76382;Laerm;65202;52.520;10.528;2023-12-20T11:09:26;52.48;44.04;64.18;;
76382;Laerm;65202;52.520;10.528;2023-12-20T11:12:18;46.51;41.60;53.86;;
76382;Laerm;65202;52.520;10.528;2023-12-20T11:14:54;49.73;43.00;61.80;;
76382;Laerm;65202;52.520;10.528;2023-12-20T11:17:32;50.54;41.23;62.34;;
76382;Laerm;65202;52.520;10.528;2023-12-20T11:22:33;49.14;44.21;54.19;;
76382;Laerm;65202;52.520;10.528;2023-12-20T11:25:10;52.44;43.33;69.44;;
76382;Laerm;65202;52.520;10.528;2023-12-20T11:27:42;47.73;41.89;55.32;;
76382;Laerm;65202;52.520;10.528;2023-12-20T11:30:15;48.17;43.80;55.74;;
76382;Laerm;65202;52.520;10.528;2023-12-20T11:32:46;51.98;44.81;67.88;;
76382;Laerm;65202;52.520;10.528;2023-12-20T11:35:22;55.14;45.00;65.56;;
76382;Laerm;65202;52.520;10.528;2023-12-20T11:37:51;52.34;46.73;56.39;;
76382;Laerm;65202;52.520;10.528;2023-12-20T11:40:23;52.33;46.26;58.60;;
76382;Laerm;65202;52.520;10.528;2023-12-20T11:42:56;51.83;46.28;67.79;;
76382;Laerm;65202;52.520;10.528;2023-12-20T11:45:28;54.64;47.22;64.14;;
76382;Laerm;65202;52.520;10.528;2023-12-20T11:47:58;47.79;43.62;64.24;;
76382;Laerm;65202;52.520;10.528;2023-12-20T11:50:26;51.87;44.18;65.91;;
76382;Laerm;65202;52.520;10.528;2023-12-20T11:52:54;51.42;44.56;66.62;;
76382;Laerm;65202;52.520;10.528;2023-12-20T11:55:25;48.85;44.64;64.21;;
76382;Laerm;65202;52.520;10.528;2023-12-20T11:57:59;49.13;44.92;66.74;;
76382;Laerm;65202;52.520;10.528;2023-12-20T12:00:32;56.19;48.85;68.94;;
76382;Laerm;65202;52.520;10.528;2023-12-20T12:03:00;56.87;50.47;69.88;;
76382;Laerm;65202;52.520;10.528;2023-12-20T12:05:34;50.52;45.24;64.95;;
76382;Laerm;65202;52.520;10.528;2023-12-20T12:08:03;51.26;43.46;67.26;;
76382;Laerm;65202;52.520;10.528;2023-12-20T12:10:33;51.68;43.51;65.76;;
76382;Laerm;65202;52.520;10.528;2023-12-20T12:13:02;50.29;41.42;67.03;;
76382;Laerm;65202;52.520;10.528;2023-12-20T12:15:32;45.57;40.63;63.57;;
76382;Laerm;65202;52.520;10.528;2023-12-20T12:18:01;45.69;41.06;65.17;;
76382;Laerm;65202;52.520;10.528;2023-12-20T12:20:29;48.89;40.54;63.70;;
76382;Laerm;65202;52.520;10.528;2023-12-20T12:23:05;46.61;41.77;64.50;;
76382;Laerm;65202;52.520;10.528;2023-12-20T12:25:37;49.08;40.32;64.67;;
76382;Laerm;65202;52.520;10.528;2023-12-20T12:28:11;52.64;39.96;72.70;;
76382;Laerm;65202;52.520;10.528;2023-12-20T12:30:39;49.55;41.91;67.34;;
76382;Laerm;65202;52.520;10.528;2023-12-20T12:33:20;49.31;40.31;67.26;;
76382;Laerm;65202;52.520;10.528;2023-12-20T12:35:51;51.77;40.26;69.31;;
76382;Laerm;65202;52.520;10.528;2023-12-20T12:38:24;49.53;40.39;64.03;;
76382;Laerm;65202;52.520;10.528;2023-12-20T12:40:57;45.96;40.37;63.75;;
76382;Laerm;65202;52.520;10.528;2023-12-20T12:43:28;49.05;40.45;67.37;;
76382;Laerm;65202;52.520;10.528;2023-12-20T12:45:59;45.11;40.02;55.09;;
76382;Laerm;65202;52.520;10.528;2023-12-20T12:48:27;44.96;40.19;56.35;;
76382;Laerm;65202;52.520;10.528;2023-12-20T12:50:58;43.67;39.92;56.92;;
76382;Laerm;65202;52.520;10.528;2023-12-20T12:53:26;47.86;41.28;61.86;;
76382;Laerm;65202;52.520;10.528;2023-12-20T12:55:54;44.71;41.20;51.83;;
76382;Laerm;65202;52.520;10.528;2023-12-20T12:58:22;43.69;39.81;55.19;;
76382;Laerm;65202;52.520;10.528;2023-12-20T13:00:49;46.32;40.38;64.68;;
76382;Laerm;65202;52.520;10.528;2023-12-20T13:03:17;44.21;39.66;64.73;;
76382;Laerm;65202;52.520;10.528;2023-12-20T13:05:44;42.63;39.08;53.70;;
76382;Laerm;65202;52.520;10.528;2023-12-20T13:08:14;47.87;41.01;62.70;;
76382;Laerm;65202;52.520;10.528;2023-12-20T13:10:42;45.73;40.97;57.38;;
76382;Laerm;65202;52.520;10.528;2023-12-20T13:13:09;43.86;40.00;53.65;;
76382;Laerm;65202;52.520;10.528;2023-12-20T13:15:37;48.39;42.15;62.29;;
76382;Laerm;65202;52.520;10.528;2023-12-20T13:18:04;51.84;42.12;66.40;;
76382;Laerm;65202;52.520;10.528;2023-12-20T13:20:33;43.99;39.59;52.31;;
76382;Laerm;65202;52.520;10.528;2023-12-20T13:23:00;47.49;41.46;60.46;;
76382;Laerm;65202;52.520;10.528;2023-12-20T13:25:28;45.38;40.89;50.92;;
76382;Laerm;65202;52.520;10.528;2023-12-20T13:27:55;45.23;40.53;56.92;;
76382;Laerm;65202;52.520;10.528;2023-12-20T13:30:22;51.27;42.49;65.70;;
76382;Laerm;65202;52.520;10.528;2023-12-20T13:32:50;48.87;41.58;63.32;;
76382;Laerm;65202;52.520;10.528;2023-12-20T13:35:17;45.17;40.95;63.53;;
76382;Laerm;65202;52.520;10.528;2023-12-20T13:37:45;48.01;40.23;63.95;;
76382;Laerm;65202;52.520;10.528;2023-12-20T13:40:13;48.62;40.02;64.25;;
76382;Laerm;65202;52.520;10.528;2023-12-20T13:42:40;49.06;40.82;68.17;;
76382;Laerm;65202;52.520;10.528;2023-12-20T13:45:08;43.38;39.66;49.00;;